地図

経路データ

SID SEASON NUMBER BASIN SUBBASIN NAME ISO_TIME NATURE LAT LON WMO_WIND WMO_PRES WMO_AGENCY TRACK_TYPE DIST2LAND LANDFALL IFLAG USA_AGENCY USA_ATCF_ID USA_LAT USA_LON USA_RECORD USA_STATUS USA_WIND USA_PRES USA_SSHS USA_R34_NE USA_R34_SE USA_R34_SW USA_R34_NW USA_R50_NE USA_R50_SE USA_R50_SW USA_R50_NW USA_R64_NE USA_R64_SE USA_R64_SW USA_R64_NW USA_POCI USA_ROCI USA_RMW USA_EYE TOKYO_LAT TOKYO_LON TOKYO_GRADE TOKYO_WIND TOKYO_PRES TOKYO_R50_DIR TOKYO_R50_LONG TOKYO_R50_SHORT TOKYO_R30_DIR TOKYO_R30_LONG TOKYO_R30_SHORT TOKYO_LAND CMA_LAT CMA_LON CMA_CAT CMA_WIND CMA_PRES HKO_LAT HKO_LON HKO_CAT HKO_WIND HKO_PRES NEWDELHI_LAT NEWDELHI_LON NEWDELHI_GRADE NEWDELHI_WIND NEWDELHI_PRES NEWDELHI_CI NEWDELHI_DP NEWDELHI_POCI REUNION_LAT REUNION_LON REUNION_TYPE REUNION_WIND REUNION_PRES REUNION_TNUM REUNION_CI REUNION_RMW REUNION_R34_NE REUNION_R34_SE REUNION_R34_SW REUNION_R34_NW REUNION_R50_NE REUNION_R50_SE REUNION_R50_SW REUNION_R50_NW REUNION_R64_NE REUNION_R64_SE REUNION_R64_SW REUNION_R64_NW BOM_LAT BOM_LON BOM_TYPE BOM_WIND BOM_PRES BOM_TNUM BOM_CI BOM_RMW BOM_R34_NE BOM_R34_SE BOM_R34_SW BOM_R34_NW BOM_R50_NE BOM_R50_SE BOM_R50_SW BOM_R50_NW BOM_R64_NE BOM_R64_SE BOM_R64_SW BOM_R64_NW BOM_ROCI BOM_POCI BOM_EYE BOM_POS_METHOD BOM_PRES_METHOD NADI_LAT NADI_LON NADI_CAT NADI_WIND NADI_PRES WELLINGTON_LAT WELLINGTON_LON WELLINGTON_WIND WELLINGTON_PRES DS824_LAT DS824_LON DS824_STAGE DS824_WIND DS824_PRES TD9636_LAT TD9636_LON TD9636_STAGE TD9636_WIND TD9636_PRES TD9635_LAT TD9635_LON TD9635_WIND TD9635_PRES TD9635_ROCI NEUMANN_LAT NEUMANN_LON NEUMANN_CLASS NEUMANN_WIND NEUMANN_PRES MLC_LAT MLC_LON MLC_CLASS MLC_WIND MLC_PRES USA_GUST BOM_GUST BOM_GUST_PER REUNION_GUST REUNION_GUST_PER USA_SEAHGT USA_SEARAD_NE USA_SEARAD_SE USA_SEARAD_SW USA_SEARAD_NW STORM_SPEED STORM_DIR
1954099S09133 1954 15 SI WA NOT_NAMED 1954-04-08 23:30:00 NR -8.90000 132.900 bom main 199 190 ______O_______ -1 -8.90000 132.900 8 243
1954099S09133 1954 15 SI WA NOT_NAMED 1954-04-09 00:00:00 NR -8.93134 132.839 main 190 180 ______P_______ -1 -8.93134 132.839 8 242
1954099S09133 1954 15 SI WA NOT_NAMED 1954-04-09 03:00:00 NR -9.12262 132.475 main 180 170 ______P_______ -1 -9.12262 132.475 8 240
1954099S09133 1954 15 SI WA NOT_NAMED 1954-04-09 06:00:00 NR -9.32911 132.134 main 170 170 ______P_______ -1 -9.32911 132.134 8 235
1954099S09133 1954 15 SI WA NOT_NAMED 1954-04-09 09:00:00 NR -9.56421 131.833 main 180 160 ______P_______ -1 -9.56421 131.833 7 226
1954099S09133 1954 15 SI WA NOT_NAMED 1954-04-09 12:00:00 NR -9.84140 131.592 main 162 145 ______P_______ -1 -9.84140 131.592 7 217
1954099S09133 1954 15 SI WA NOT_NAMED 1954-04-09 13:30:00 NR -10.0000 131.500 bom main 145 123 ______O_______ -1 -10.0000 131.500 7 205
1954099S09133 1954 15 SI WA NOT_NAMED 1954-04-09 15:00:00 NR -10.1727 131.429 main 123 89 ______P_______ -1 -10.1727 131.429 8 197
1954099S09133 1954 15 SI WA NOT_NAMED 1954-04-09 18:00:00 NR -10.5363 131.342 main 89 44 ______P_______ -1 -10.5363 131.342 7 189
1954099S09133 1954 15 SI WA NOT_NAMED 1954-04-09 21:00:00 NR -10.8762 131.306 main 44 22 ______P_______ -1 -10.8762 131.306 6 184
1954099S09133 1954 15 SI WA NOT_NAMED 1954-04-09 23:30:00 NR -11.1000 131.300 976 bom main 22 22 ______O_______ -1 -11.1000 131.300 976 4 5 0
1954099S09133 1954 15 SI WA NOT_NAMED 1954-04-10 00:00:00 NR -11.1335 131.299 main 22 11 ______P_______ -1 -11.1335 131.299 4 0
1954099S09133 1954 15 SI WA NOT_NAMED 1954-04-10 01:00:00 NR -11.2000 131.300 bom main 11 0 ______O_______ -1 -11.2000 131.300 5 175
1954099S09133 1954 15 SI WA NOT_NAMED 1954-04-10 03:00:00 NR -11.3763 131.314 main 0 0 ______P_______ -1 -11.3763 131.314 6 173
1954099S09133 1954 15 SI WA NOT_NAMED 1954-04-10 06:00:00 NR -11.7193 131.366 main 10 10 ______P_______ -1 -11.7193 131.366 7 170
1954099S09133 1954 15 SI WA NOT_NAMED 1954-04-10 09:00:00 NR -12.1068 131.449 main 10 0 ______P_______ -1 -12.1068 131.449 8 168
1954099S09133 1954 15 SI WA NOT_NAMED 1954-04-10 10:30:00 NR -12.3000 131.500 bom main 0 0 ______O_______ -1 -12.3000 131.500 8 165
1954099S09133 1954 15 SI WA NOT_NAMED 1954-04-10 12:00:00 NR -12.4848 131.556 main 0 0 ______P_______ -1 -12.4848 131.556 8 162
1954099S09133 1954 15 SI WA NOT_NAMED 1954-04-10 15:00:00 NR -12.8300 131.683 main 0 0 ______P_______ -1 -12.8300 131.683 7 159
1954099S09133 1954 15 SI WA NOT_NAMED 1954-04-10 18:00:00 NR -13.1498 131.823 main 0 0 ______P_______ -1 -13.1498 131.823 7 156
1954099S09133 1954 15 SI WA NOT_NAMED 1954-04-10 21:00:00 NR -13.4533 131.972 main 0 0 ______P_______ -1 -13.4533 131.972 7 154
1954099S09133 1954 15 SI WA NOT_NAMED 1954-04-10 23:30:00 NR -13.7000 132.100 bom main 0 ______O_______ -1 -13.7000 132.100 7 153

IBTrACS Databaseについて

本データベースは、米国NOAAが公開する1842年以降の世界の熱帯低気圧のベストトラックデータアーカイブInternational Best Track Archive for Climate Stewardship (IBTrACS)を、ウェブで閲覧しやすい形式に変換したものです。

最終更新日:2021-10-19